sensor_id;sensor_type;location;lat;lon;timestamp;P1;durP1;ratioP1;P2;durP2;ratioP2
46835;SDS011;32573;51.290;6.926;2022-07-10T00:00:17;2.67;;;0.90;;
46835;SDS011;32573;51.290;6.926;2022-07-10T00:02:48;2.70;;;0.90;;
46835;SDS011;32573;51.290;6.926;2022-07-10T00:05:16;2.80;;;0.90;;
46835;SDS011;32573;51.290;6.926;2022-07-10T00:07:46;3.60;;;1.13;;
46835;SDS011;32573;51.290;6.926;2022-07-10T00:10:14;2.85;;;1.10;;
46835;SDS011;32573;51.290;6.926;2022-07-10T00:12:45;2.88;;;1.00;;
46835;SDS011;32573;51.290;6.926;2022-07-10T00:15:13;3.80;;;1.10;;
46835;SDS011;32573;51.290;6.926;2022-07-10T00:17:42;4.13;;;1.00;;
46835;SDS011;32573;51.290;6.926;2022-07-10T00:20:11;3.17;;;1.00;;
46835;SDS011;32573;51.290;6.926;2022-07-10T00:22:41;4.57;;;1.30;;
46835;SDS011;32573;51.290;6.926;2022-07-10T00:25:10;1.95;;;0.98;;
46835;SDS011;32573;51.290;6.926;2022-07-10T00:27:40;2.63;;;1.13;;
46835;SDS011;32573;51.290;6.926;2022-07-10T00:30:11;3.20;;;1.10;;
46835;SDS011;32573;51.290;6.926;2022-07-10T00:32:40;2.58;;;1.00;;
46835;SDS011;32573;51.290;6.926;2022-07-10T00:35:09;3.42;;;0.90;;
46835;SDS011;32573;51.290;6.926;2022-07-10T00:37:37;2.88;;;0.90;;
46835;SDS011;32573;51.290;6.926;2022-07-10T00:40:06;3.60;;;1.13;;
46835;SDS011;32573;51.290;6.926;2022-07-10T00:42:35;3.30;;;1.00;;
46835;SDS011;32573;51.290;6.926;2022-07-10T00:45:04;3.83;;;1.00;;
46835;SDS011;32573;51.290;6.926;2022-07-10T00:47:35;3.33;;;1.00;;
46835;SDS011;32573;51.290;6.926;2022-07-10T00:50:03;3.30;;;1.00;;
46835;SDS011;32573;51.290;6.926;2022-07-10T00:52:33;3.03;;;0.98;;
46835;SDS011;32573;51.290;6.926;2022-07-10T00:55:06;4.30;;;1.15;;
46835;SDS011;32573;51.290;6.926;2022-07-10T00:57:37;3.88;;;1.00;;
46835;SDS011;32573;51.290;6.926;2022-07-10T01:00:07;3.55;;;1.00;;
46835;SDS011;32573;51.290;6.926;2022-07-10T01:02:40;2.63;;;1.00;;
46835;SDS011;32573;51.290;6.926;2022-07-10T01:05:11;4.82;;;1.10;;
46835;SDS011;32573;51.290;6.926;2022-07-10T01:07:39;2.75;;;1.00;;
46835;SDS011;32573;51.290;6.926;2022-07-10T01:10:08;3.20;;;1.00;;
46835;SDS011;32573;51.290;6.926;2022-07-10T01:12:37;3.60;;;1.10;;
46835;SDS011;32573;51.290;6.926;2022-07-10T01:15:06;3.28;;;0.90;;
46835;SDS011;32573;51.290;6.926;2022-07-10T01:17:35;2.80;;;1.08;;
46835;SDS011;32573;51.290;6.926;2022-07-10T01:20:06;3.72;;;0.95;;
46835;SDS011;32573;51.290;6.926;2022-07-10T01:22:37;3.08;;;1.00;;
46835;SDS011;32573;51.290;6.926;2022-07-10T01:25:06;4.38;;;1.10;;
46835;SDS011;32573;51.290;6.926;2022-07-10T01:27:34;4.07;;;1.20;;
46835;SDS011;32573;51.290;6.926;2022-07-10T01:30:03;2.25;;;1.00;;
46835;SDS011;32573;51.290;6.926;2022-07-10T01:32:38;2.03;;;0.90;;
46835;SDS011;32573;51.290;6.926;2022-07-10T01:35:08;2.78;;;0.93;;
46835;SDS011;32573;51.290;6.926;2022-07-10T01:37:38;3.38;;;1.00;;
46835;SDS011;32573;51.290;6.926;2022-07-10T01:40:07;3.00;;;1.10;;
46835;SDS011;32573;51.290;6.926;2022-07-10T01:42:36;4.07;;;0.93;;
46835;SDS011;32573;51.290;6.926;2022-07-10T01:45:06;4.22;;;1.00;;
46835;SDS011;32573;51.290;6.926;2022-07-10T01:47:36;2.35;;;1.00;;
46835;SDS011;32573;51.290;6.926;2022-07-10T01:50:05;3.00;;;0.90;;
46835;SDS011;32573;51.290;6.926;2022-07-10T01:52:33;2.10;;;0.88;;
46835;SDS011;32573;51.290;6.926;2022-07-10T01:55:03;3.78;;;1.00;;
46835;SDS011;32573;51.290;6.926;2022-07-10T01:57:33;2.95;;;0.95;;
46835;SDS011;32573;51.290;6.926;2022-07-10T02:00:01;4.97;;;1.08;;
46835;SDS011;32573;51.290;6.926;2022-07-10T02:02:38;4.00;;;1.00;;
46835;SDS011;32573;51.290;6.926;2022-07-10T02:05:07;2.40;;;0.82;;
46835;SDS011;32573;51.290;6.926;2022-07-10T02:07:34;3.10;;;1.00;;
46835;SDS011;32573;51.290;6.926;2022-07-10T02:10:05;3.05;;;0.80;;
46835;SDS011;32573;51.290;6.926;2022-07-10T02:12:33;2.60;;;0.90;;
46835;SDS011;32573;51.290;6.926;2022-07-10T02:15:02;2.33;;;0.95;;
46835;SDS011;32573;51.290;6.926;2022-07-10T02:17:31;2.97;;;0.90;;
46835;SDS011;32573;51.290;6.926;2022-07-10T02:19:59;2.55;;;0.90;;
46835;SDS011;32573;51.290;6.926;2022-07-10T02:22:28;3.42;;;0.90;;
46835;SDS011;32573;51.290;6.926;2022-07-10T02:24:56;3.58;;;0.90;;
46835;SDS011;32573;51.290;6.926;2022-07-10T02:27:26;5.05;;;1.10;;
46835;SDS011;32573;51.290;6.926;2022-07-10T02:29:54;5.40;;;1.08;;
46835;SDS011;32573;51.290;6.926;2022-07-10T02:32:23;2.17;;;0.90;;
46835;SDS011;32573;51.290;6.926;2022-07-10T02:34:51;3.08;;;0.90;;
46835;SDS011;32573;51.290;6.926;2022-07-10T02:37:20;2.92;;;0.93;;
46835;SDS011;32573;51.290;6.926;2022-07-10T02:39:48;3.22;;;0.90;;
46835;SDS011;32573;51.290;6.926;2022-07-10T02:42:17;2.65;;;1.00;;
46835;SDS011;32573;51.290;6.926;2022-07-10T02:44:46;3.33;;;1.00;;
46835;SDS011;32573;51.290;6.926;2022-07-10T02:47:15;2.70;;;0.95;;
46835;SDS011;32573;51.290;6.926;2022-07-10T02:49:43;2.60;;;0.90;;
46835;SDS011;32573;51.290;6.926;2022-07-10T02:52:12;2.65;;;1.00;;
46835;SDS011;32573;51.290;6.926;2022-07-10T02:54:40;1.90;;;0.80;;
46835;SDS011;32573;51.290;6.926;2022-07-10T02:57:08;2.97;;;0.90;;
46835;SDS011;32573;51.290;6.926;2022-07-10T02:59:37;2.95;;;0.80;;
46835;SDS011;32573;51.290;6.926;2022-07-10T03:02:06;1.92;;;0.88;;
46835;SDS011;32573;51.290;6.926;2022-07-10T03:04:35;3.53;;;0.90;;
46835;SDS011;32573;51.290;6.926;2022-07-10T03:07:04;3.35;;;1.00;;
46835;SDS011;32573;51.290;6.926;2022-07-10T03:09:33;4.32;;;1.00;;
46835;SDS011;32573;51.290;6.926;2022-07-10T03:12:01;2.80;;;0.95;;
46835;SDS011;32573;51.290;6.926;2022-07-10T03:14:30;3.70;;;1.00;;
46835;SDS011;32573;51.290;6.926;2022-07-10T03:16:58;2.58;;;1.00;;
46835;SDS011;32573;51.290;6.926;2022-07-10T03:19:28;2.78;;;1.10;;
46835;SDS011;32573;51.290;6.926;2022-07-10T03:21:56;4.18;;;1.10;;
46835;SDS011;32573;51.290;6.926;2022-07-10T03:24:25;4.03;;;1.02;;
46835;SDS011;32573;51.290;6.926;2022-07-10T03:26:53;6.45;;;1.20;;
46835;SDS011;32573;51.290;6.926;2022-07-10T03:29:21;3.63;;;1.20;;
46835;SDS011;32573;51.290;6.926;2022-07-10T03:31:50;4.70;;;1.30;;
46835;SDS011;32573;51.290;6.926;2022-07-10T03:34:18;4.03;;;1.20;;
46835;SDS011;32573;51.290;6.926;2022-07-10T03:36:48;3.38;;;1.10;;
46835;SDS011;32573;51.290;6.926;2022-07-10T03:39:17;2.65;;;0.90;;
46835;SDS011;32573;51.290;6.926;2022-07-10T03:41:45;3.60;;;1.00;;
46835;SDS011;32573;51.290;6.926;2022-07-10T03:44:13;3.95;;;1.05;;
46835;SDS011;32573;51.290;6.926;2022-07-10T03:46:42;4.22;;;1.00;;
46835;SDS011;32573;51.290;6.926;2022-07-10T03:49:10;4.35;;;1.00;;
46835;SDS011;32573;51.290;6.926;2022-07-10T03:51:39;2.95;;;1.10;;
46835;SDS011;32573;51.290;6.926;2022-07-10T03:54:09;3.00;;;1.00;;
46835;SDS011;32573;51.290;6.926;2022-07-10T03:56:38;2.90;;;1.02;;
46835;SDS011;32573;51.290;6.926;2022-07-10T03:59:24;3.63;;;1.15;;
46835;SDS011;32573;51.290;6.926;2022-07-10T04:01:52;3.65;;;1.13;;
46835;SDS011;32573;51.290;6.926;2022-07-10T04:04:21;2.90;;;1.10;;
46835;SDS011;32573;51.290;6.926;2022-07-10T04:06:49;2.92;;;1.02;;
46835;SDS011;32573;51.290;6.926;2022-07-10T04:09:19;3.05;;;1.10;;
46835;SDS011;32573;51.290;6.926;2022-07-10T04:11:47;4.18;;;1.20;;
46835;SDS011;32573;51.290;6.926;2022-07-10T04:14:16;2.20;;;0.90;;
46835;SDS011;32573;51.290;6.926;2022-07-10T04:16:44;3.63;;;0.93;;
46835;SDS011;32573;51.290;6.926;2022-07-10T04:19:13;3.15;;;1.00;;
46835;SDS011;32573;51.290;6.926;2022-07-10T04:21:42;3.78;;;1.10;;
46835;SDS011;32573;51.290;6.926;2022-07-10T04:24:10;3.35;;;1.00;;
46835;SDS011;32573;51.290;6.926;2022-07-10T04:26:40;1.83;;;0.90;;
46835;SDS011;32573;51.290;6.926;2022-07-10T04:29:08;2.88;;;0.93;;
46835;SDS011;32573;51.290;6.926;2022-07-10T04:31:37;3.78;;;1.30;;
46835;SDS011;32573;51.290;6.926;2022-07-10T04:34:05;2.85;;;1.13;;
46835;SDS011;32573;51.290;6.926;2022-07-10T04:36:34;3.65;;;1.05;;
46835;SDS011;32573;51.290;6.926;2022-07-10T04:39:03;3.88;;;1.20;;
46835;SDS011;32573;51.290;6.926;2022-07-10T04:41:31;4.97;;;1.30;;
46835;SDS011;32573;51.290;6.926;2022-07-10T04:44:01;4.25;;;1.15;;
46835;SDS011;32573;51.290;6.926;2022-07-10T04:46:29;4.55;;;1.17;;
46835;SDS011;32573;51.290;6.926;2022-07-10T04:48:58;3.45;;;1.20;;
46835;SDS011;32573;51.290;6.926;2022-07-10T04:51:27;3.40;;;1.38;;
46835;SDS011;32573;51.290;6.926;2022-07-10T04:53:55;4.13;;;1.20;;
46835;SDS011;32573;51.290;6.926;2022-07-10T04:56:24;4.85;;;1.40;;
46835;SDS011;32573;51.290;6.926;2022-07-10T04:58:52;2.90;;;1.30;;
46835;SDS011;32573;51.290;6.926;2022-07-10T05:01:22;3.45;;;1.35;;
46835;SDS011;32573;51.290;6.926;2022-07-10T05:03:50;4.03;;;1.40;;
46835;SDS011;32573;51.290;6.926;2022-07-10T05:06:19;5.57;;;1.90;;
46835;SDS011;32573;51.290;6.926;2022-07-10T05:08:47;5.68;;;1.50;;
46835;SDS011;32573;51.290;6.926;2022-07-10T05:11:20;5.32;;;1.92;;
46835;SDS011;32573;51.290;6.926;2022-07-10T05:13:48;5.03;;;1.52;;
46835;SDS011;32573;51.290;6.926;2022-07-10T05:16:17;4.63;;;1.70;;
46835;SDS011;32573;51.290;6.926;2022-07-10T05:18:48;6.32;;;2.05;;
46835;SDS011;32573;51.290;6.926;2022-07-10T05:21:16;6.18;;;2.10;;
46835;SDS011;32573;51.290;6.926;2022-07-10T05:23:45;4.45;;;1.63;;
46835;SDS011;32573;51.290;6.926;2022-07-10T05:26:13;5.93;;;2.17;;
46835;SDS011;32573;51.290;6.926;2022-07-10T05:28:42;4.35;;;1.50;;
46835;SDS011;32573;51.290;6.926;2022-07-10T05:31:10;5.63;;;1.65;;
46835;SDS011;32573;51.290;6.926;2022-07-10T05:33:39;3.83;;;1.60;;
46835;SDS011;32573;51.290;6.926;2022-07-10T05:36:08;5.25;;;1.65;;
46835;SDS011;32573;51.290;6.926;2022-07-10T05:38:37;5.18;;;1.40;;
46835;SDS011;32573;51.290;6.926;2022-07-10T05:41:06;6.57;;;1.92;;
46835;SDS011;32573;51.290;6.926;2022-07-10T05:43:35;6.00;;;1.80;;
46835;SDS011;32573;51.290;6.926;2022-07-10T05:46:03;4.65;;;1.90;;
46835;SDS011;32573;51.290;6.926;2022-07-10T05:48:32;5.43;;;1.90;;
46835;SDS011;32573;51.290;6.926;2022-07-10T05:51:01;5.35;;;1.80;;
46835;SDS011;32573;51.290;6.926;2022-07-10T05:53:51;4.63;;;1.60;;
46835;SDS011;32573;51.290;6.926;2022-07-10T05:56:19;4.35;;;1.30;;
46835;SDS011;32573;51.290;6.926;2022-07-10T05:58:48;4.80;;;1.50;;
46835;SDS011;32573;51.290;6.926;2022-07-10T06:01:17;6.75;;;1.70;;
46835;SDS011;32573;51.290;6.926;2022-07-10T06:03:45;4.07;;;1.50;;
46835;SDS011;32573;51.290;6.926;2022-07-10T06:06:14;7.03;;;2.00;;
46835;SDS011;32573;51.290;6.926;2022-07-10T06:08:43;4.15;;;1.55;;
46835;SDS011;32573;51.290;6.926;2022-07-10T06:11:13;5.97;;;1.85;;
46835;SDS011;32573;51.290;6.926;2022-07-10T06:13:43;4.65;;;1.60;;
46835;SDS011;32573;51.290;6.926;2022-07-10T06:16:11;6.03;;;1.63;;
46835;SDS011;32573;51.290;6.926;2022-07-10T06:18:40;4.65;;;1.60;;
46835;SDS011;32573;51.290;6.926;2022-07-10T06:21:09;6.72;;;1.92;;
46835;SDS011;32573;51.290;6.926;2022-07-10T06:23:37;4.85;;;1.90;;
46835;SDS011;32573;51.290;6.926;2022-07-10T06:26:06;4.82;;;1.55;;
46835;SDS011;32573;51.290;6.926;2022-07-10T06:28:35;7.93;;;1.95;;
46835;SDS011;32573;51.290;6.926;2022-07-10T06:31:04;7.07;;;1.88;;
46835;SDS011;32573;51.290;6.926;2022-07-10T06:33:33;6.15;;;1.60;;
46835;SDS011;32573;51.290;6.926;2022-07-10T06:36:03;5.80;;;1.90;;
46835;SDS011;32573;51.290;6.926;2022-07-10T06:38:32;5.70;;;1.60;;
46835;SDS011;32573;51.290;6.926;2022-07-10T06:41:01;5.13;;;1.67;;
46835;SDS011;32573;51.290;6.926;2022-07-10T06:43:29;5.18;;;1.80;;
46835;SDS011;32573;51.290;6.926;2022-07-10T06:45:59;5.70;;;2.13;;
46835;SDS011;32573;51.290;6.926;2022-07-10T06:48:27;4.07;;;1.70;;
46835;SDS011;32573;51.290;6.926;2022-07-10T06:50:55;7.32;;;1.77;;
46835;SDS011;32573;51.290;6.926;2022-07-10T06:53:24;4.45;;;1.90;;
46835;SDS011;32573;51.290;6.926;2022-07-10T06:55:54;5.28;;;1.67;;
46835;SDS011;32573;51.290;6.926;2022-07-10T06:58:22;6.05;;;1.50;;
46835;SDS011;32573;51.290;6.926;2022-07-10T07:00:51;5.47;;;1.60;;
46835;SDS011;32573;51.290;6.926;2022-07-10T07:03:21;5.13;;;1.60;;
46835;SDS011;32573;51.290;6.926;2022-07-10T07:05:49;3.78;;;1.40;;
46835;SDS011;32573;51.290;6.926;2022-07-10T07:08:17;4.93;;;1.70;;
46835;SDS011;32573;51.290;6.926;2022-07-10T07:10:46;4.63;;;1.58;;
46835;SDS011;32573;51.290;6.926;2022-07-10T07:13:14;4.90;;;1.90;;
46835;SDS011;32573;51.290;6.926;2022-07-10T07:15:43;5.43;;;1.70;;
46835;SDS011;32573;51.290;6.926;2022-07-10T07:18:18;6.18;;;1.90;;
46835;SDS011;32573;51.290;6.926;2022-07-10T07:20:49;5.22;;;1.65;;
46835;SDS011;32573;51.290;6.926;2022-07-10T07:23:35;5.20;;;1.52;;
46835;SDS011;32573;51.290;6.926;2022-07-10T07:26:04;3.70;;;1.42;;
46835;SDS011;32573;51.290;6.926;2022-07-10T07:28:32;3.78;;;1.25;;
46835;SDS011;32573;51.290;6.926;2022-07-10T07:31:00;7.03;;;1.98;;
46835;SDS011;32573;51.290;6.926;2022-07-10T07:33:29;6.05;;;1.75;;
46835;SDS011;32573;51.290;6.926;2022-07-10T07:35:59;4.70;;;1.60;;
46835;SDS011;32573;51.290;6.926;2022-07-10T07:38:27;4.90;;;1.70;;
46835;SDS011;32573;51.290;6.926;2022-07-10T07:40:56;4.78;;;1.60;;
46835;SDS011;32573;51.290;6.926;2022-07-10T07:43:24;4.00;;;1.45;;
46835;SDS011;32573;51.290;6.926;2022-07-10T07:45:52;5.50;;;1.67;;
46835;SDS011;32573;51.290;6.926;2022-07-10T07:48:21;3.95;;;1.55;;
46835;SDS011;32573;51.290;6.926;2022-07-10T07:50:49;4.75;;;1.45;;
46835;SDS011;32573;51.290;6.926;2022-07-10T07:53:19;4.95;;;1.42;;
46835;SDS011;32573;51.290;6.926;2022-07-10T07:55:47;6.82;;;1.65;;
46835;SDS011;32573;51.290;6.926;2022-07-10T07:58:16;6.60;;;1.90;;
46835;SDS011;32573;51.290;6.926;2022-07-10T08:00:44;7.68;;;2.50;;
46835;SDS011;32573;51.290;6.926;2022-07-10T08:03:13;8.43;;;2.15;;
46835;SDS011;32573;51.290;6.926;2022-07-10T08:05:42;6.95;;;2.80;;
46835;SDS011;32573;51.290;6.926;2022-07-10T08:08:11;10.15;;;3.22;;
46835;SDS011;32573;51.290;6.926;2022-07-10T08:10:41;7.72;;;3.35;;
46835;SDS011;32573;51.290;6.926;2022-07-10T08:13:11;6.97;;;2.78;;
46835;SDS011;32573;51.290;6.926;2022-07-10T08:15:40;8.32;;;3.55;;
46835;SDS011;32573;51.290;6.926;2022-07-10T08:18:08;7.13;;;3.10;;
46835;SDS011;32573;51.290;6.926;2022-07-10T08:20:36;7.40;;;3.03;;
46835;SDS011;32573;51.290;6.926;2022-07-10T08:23:05;5.78;;;2.50;;
46835;SDS011;32573;51.290;6.926;2022-07-10T08:25:33;8.55;;;3.17;;
46835;SDS011;32573;51.290;6.926;2022-07-10T08:28:04;8.63;;;3.20;;
46835;SDS011;32573;51.290;6.926;2022-07-10T08:30:33;6.47;;;3.10;;
46835;SDS011;32573;51.290;6.926;2022-07-10T08:33:02;6.57;;;2.95;;
46835;SDS011;32573;51.290;6.926;2022-07-10T08:35:30;7.22;;;3.13;;
46835;SDS011;32573;51.290;6.926;2022-07-10T08:37:59;5.93;;;2.80;;
46835;SDS011;32573;51.290;6.926;2022-07-10T08:40:30;6.70;;;2.50;;
46835;SDS011;32573;51.290;6.926;2022-07-10T08:43:04;6.55;;;2.58;;
46835;SDS011;32573;51.290;6.926;2022-07-10T08:45:34;7.05;;;2.60;;
46835;SDS011;32573;51.290;6.926;2022-07-10T08:48:03;5.25;;;2.60;;
46835;SDS011;32573;51.290;6.926;2022-07-10T08:50:38;5.72;;;2.70;;
46835;SDS011;32573;51.290;6.926;2022-07-10T08:53:12;8.57;;;3.45;;
46835;SDS011;32573;51.290;6.926;2022-07-10T08:55:44;7.40;;;3.50;;
46835;SDS011;32573;51.290;6.926;2022-07-10T08:58:13;7.38;;;3.80;;
46835;SDS011;32573;51.290;6.926;2022-07-10T09:00:43;6.60;;;3.58;;
46835;SDS011;32573;51.290;6.926;2022-07-10T09:03:11;6.70;;;3.20;;
46835;SDS011;32573;51.290;6.926;2022-07-10T09:05:39;7.53;;;3.47;;
46835;SDS011;32573;51.290;6.926;2022-07-10T09:08:21;6.47;;;3.53;;
46835;SDS011;32573;51.290;6.926;2022-07-10T09:10:50;8.55;;;3.50;;
46835;SDS011;32573;51.290;6.926;2022-07-10T09:13:20;6.75;;;3.50;;
46835;SDS011;32573;51.290;6.926;2022-07-10T09:15:51;8.55;;;3.60;;
46835;SDS011;32573;51.290;6.926;2022-07-10T09:18:21;7.78;;;4.00;;
46835;SDS011;32573;51.290;6.926;2022-07-10T09:20:53;9.60;;;4.47;;
46835;SDS011;32573;51.290;6.926;2022-07-10T09:23:22;7.82;;;4.30;;
46835;SDS011;32573;51.290;6.926;2022-07-10T09:25:52;6.05;;;3.67;;
46835;SDS011;32573;51.290;6.926;2022-07-10T09:28:22;8.73;;;3.72;;
46835;SDS011;32573;51.290;6.926;2022-07-10T09:30:51;9.80;;;4.53;;
46835;SDS011;32573;51.290;6.926;2022-07-10T09:33:21;6.20;;;3.83;;
46835;SDS011;32573;51.290;6.926;2022-07-10T09:35:54;6.63;;;4.38;;
46835;SDS011;32573;51.290;6.926;2022-07-10T09:38:47;6.30;;;4.25;;
46835;SDS011;32573;51.290;6.926;2022-07-10T09:41:18;7.60;;;4.40;;
46835;SDS011;32573;51.290;6.926;2022-07-10T09:43:50;6.85;;;4.43;;
46835;SDS011;32573;51.290;6.926;2022-07-10T09:46:19;7.35;;;4.03;;
46835;SDS011;32573;51.290;6.926;2022-07-10T09:48:58;9.05;;;4.25;;
46835;SDS011;32573;51.290;6.926;2022-07-10T09:51:29;7.43;;;4.30;;
46835;SDS011;32573;51.290;6.926;2022-07-10T09:54:00;7.85;;;4.82;;
46835;SDS011;32573;51.290;6.926;2022-07-10T09:56:31;8.45;;;4.63;;
46835;SDS011;32573;51.290;6.926;2022-07-10T09:59:05;8.27;;;4.68;;
46835;SDS011;32573;51.290;6.926;2022-07-10T10:01:36;9.33;;;4.97;;
46835;SDS011;32573;51.290;6.926;2022-07-10T10:04:05;8.25;;;4.80;;
46835;SDS011;32573;51.290;6.926;2022-07-10T10:06:36;8.57;;;5.55;;
46835;SDS011;32573;51.290;6.926;2022-07-10T10:09:07;9.65;;;5.57;;
46835;SDS011;32573;51.290;6.926;2022-07-10T10:11:40;11.20;;;5.50;;
46835;SDS011;32573;51.290;6.926;2022-07-10T10:14:12;10.02;;;5.38;;
46835;SDS011;32573;51.290;6.926;2022-07-10T10:16:46;9.27;;;4.45;;
46835;SDS011;32573;51.290;6.926;2022-07-10T10:19:16;7.25;;;4.55;;
46835;SDS011;32573;51.290;6.926;2022-07-10T10:22:04;8.20;;;4.85;;
46835;SDS011;32573;51.290;6.926;2022-07-10T10:24:41;9.32;;;4.97;;
46835;SDS011;32573;51.290;6.926;2022-07-10T10:27:12;10.35;;;6.75;;
46835;SDS011;32573;51.290;6.926;2022-07-10T10:29:44;8.88;;;6.18;;
46835;SDS011;32573;51.290;6.926;2022-07-10T10:32:15;9.88;;;6.05;;
46835;SDS011;32573;51.290;6.926;2022-07-10T10:34:45;8.00;;;4.32;;
46835;SDS011;32573;51.290;6.926;2022-07-10T10:37:28;8.73;;;3.95;;
46835;SDS011;32573;51.290;6.926;2022-07-10T10:40:03;8.93;;;3.50;;
46835;SDS011;32573;51.290;6.926;2022-07-10T10:42:34;5.97;;;3.10;;
46835;SDS011;32573;51.290;6.926;2022-07-10T10:45:24;9.10;;;3.25;;
46835;SDS011;32573;51.290;6.926;2022-07-10T10:47:58;6.25;;;3.10;;
46835;SDS011;32573;51.290;6.926;2022-07-10T10:50:47;6.80;;;3.65;;
46835;SDS011;32573;51.290;6.926;2022-07-10T10:53:18;8.88;;;4.88;;
46835;SDS011;32573;51.290;6.926;2022-07-10T10:58:50;7.57;;;4.03;;
46835;SDS011;32573;51.290;6.926;2022-07-10T11:01:25;6.80;;;3.85;;
46835;SDS011;32573;51.290;6.926;2022-07-10T11:04:14;7.25;;;4.15;;
46835;SDS011;32573;51.290;6.926;2022-07-10T11:06:47;7.55;;;3.88;;
46835;SDS011;32573;51.290;6.926;2022-07-10T11:09:23;7.28;;;3.72;;
46835;SDS011;32573;51.290;6.926;2022-07-10T11:12:03;6.07;;;3.60;;
46835;SDS011;32573;51.290;6.926;2022-07-10T11:14:33;6.45;;;4.20;;
46835;SDS011;32573;51.290;6.926;2022-07-10T11:17:04;5.53;;;3.50;;
46835;SDS011;32573;51.290;6.926;2022-07-10T11:19:35;5.72;;;3.80;;
46835;SDS011;32573;51.290;6.926;2022-07-10T11:22:11;6.47;;;3.40;;
46835;SDS011;32573;51.290;6.926;2022-07-10T11:24:55;4.30;;;2.80;;
46835;SDS011;32573;51.290;6.926;2022-07-10T11:27:42;4.85;;;2.58;;
46835;SDS011;32573;51.290;6.926;2022-07-10T11:32:56;3.85;;;2.05;;
46835;SDS011;32573;51.290;6.926;2022-07-10T11:35:32;4.35;;;2.00;;
46835;SDS011;32573;51.290;6.926;2022-07-10T11:38:00;4.55;;;2.10;;
46835;SDS011;32573;51.290;6.926;2022-07-10T11:40:29;4.50;;;2.17;;
46835;SDS011;32573;51.290;6.926;2022-07-10T11:42:57;4.05;;;2.10;;
46835;SDS011;32573;51.290;6.926;2022-07-10T11:45:28;3.83;;;2.00;;
46835;SDS011;32573;51.290;6.926;2022-07-10T11:47:59;3.55;;;1.90;;
46835;SDS011;32573;51.290;6.926;2022-07-10T11:50:27;3.42;;;1.50;;
46835;SDS011;32573;51.290;6.926;2022-07-10T11:53:03;3.30;;;1.70;;
46835;SDS011;32573;51.290;6.926;2022-07-10T11:55:32;3.15;;;1.60;;
46835;SDS011;32573;51.290;6.926;2022-07-10T11:58:12;4.25;;;2.00;;
46835;SDS011;32573;51.290;6.926;2022-07-10T12:00:41;4.75;;;2.50;;
46835;SDS011;32573;51.290;6.926;2022-07-10T12:03:18;3.95;;;1.85;;
46835;SDS011;32573;51.290;6.926;2022-07-10T12:08:28;5.60;;;2.45;;
46835;SDS011;32573;51.290;6.926;2022-07-10T12:10:57;5.28;;;2.30;;
46835;SDS011;32573;51.290;6.926;2022-07-10T12:13:25;4.25;;;2.10;;
46835;SDS011;32573;51.290;6.926;2022-07-10T12:15:54;4.28;;;2.10;;
46835;SDS011;32573;51.290;6.926;2022-07-10T12:18:24;4.35;;;2.08;;
46835;SDS011;32573;51.290;6.926;2022-07-10T12:20:55;4.53;;;2.13;;
46835;SDS011;32573;51.290;6.926;2022-07-10T12:23:25;4.05;;;2.00;;
46835;SDS011;32573;51.290;6.926;2022-07-10T12:25:54;4.82;;;2.10;;
46835;SDS011;32573;51.290;6.926;2022-07-10T12:28:23;4.82;;;2.55;;
46835;SDS011;32573;51.290;6.926;2022-07-10T12:30:51;5.78;;;2.90;;
46835;SDS011;32573;51.290;6.926;2022-07-10T12:33:20;4.63;;;2.40;;
46835;SDS011;32573;51.290;6.926;2022-07-10T12:35:51;4.55;;;2.10;;
46835;SDS011;32573;51.290;6.926;2022-07-10T12:38:23;4.32;;;2.38;;
46835;SDS011;32573;51.290;6.926;2022-07-10T12:41:06;5.13;;;2.17;;
46835;SDS011;32573;51.290;6.926;2022-07-10T12:43:35;4.00;;;1.70;;
46835;SDS011;32573;51.290;6.926;2022-07-10T12:46:07;6.60;;;2.20;;
46835;SDS011;32573;51.290;6.926;2022-07-10T12:48:39;6.18;;;2.38;;
46835;SDS011;32573;51.290;6.926;2022-07-10T12:51:20;4.95;;;2.25;;
46835;SDS011;32573;51.290;6.926;2022-07-10T12:53:52;6.28;;;2.47;;
46835;SDS011;32573;51.290;6.926;2022-07-10T12:56:31;6.28;;;2.30;;
46835;SDS011;32573;51.290;6.926;2022-07-10T12:59:02;8.18;;;3.00;;
46835;SDS011;32573;51.290;6.926;2022-07-10T13:01:39;6.03;;;2.30;;
46835;SDS011;32573;51.290;6.926;2022-07-10T13:04:09;4.57;;;2.22;;
46835;SDS011;32573;51.290;6.926;2022-07-10T13:06:39;4.60;;;2.45;;
46835;SDS011;32573;51.290;6.926;2022-07-10T13:09:18;4.70;;;2.63;;
46835;SDS011;32573;51.290;6.926;2022-07-10T13:11:47;7.60;;;3.67;;
46835;SDS011;32573;51.290;6.926;2022-07-10T13:14:16;7.82;;;3.22;;
46835;SDS011;32573;51.290;6.926;2022-07-10T13:16:44;6.32;;;3.70;;
46835;SDS011;32573;51.290;6.926;2022-07-10T13:19:13;6.45;;;3.38;;
46835;SDS011;32573;51.290;6.926;2022-07-10T13:21:42;5.35;;;2.55;;
46835;SDS011;32573;51.290;6.926;2022-07-10T13:24:11;9.32;;;3.00;;
46835;SDS011;32573;51.290;6.926;2022-07-10T13:26:39;6.90;;;2.85;;
46835;SDS011;32573;51.290;6.926;2022-07-10T13:29:08;4.68;;;2.55;;
46835;SDS011;32573;51.290;6.926;2022-07-10T13:31:39;5.97;;;2.70;;
46835;SDS011;32573;51.290;6.926;2022-07-10T13:34:07;4.63;;;2.13;;
46835;SDS011;32573;51.290;6.926;2022-07-10T13:36:36;4.55;;;2.30;;
46835;SDS011;32573;51.290;6.926;2022-07-10T13:39:06;6.32;;;3.30;;
46835;SDS011;32573;51.290;6.926;2022-07-10T13:41:34;5.10;;;2.85;;
46835;SDS011;32573;51.290;6.926;2022-07-10T13:44:02;7.35;;;2.90;;
46835;SDS011;32573;51.290;6.926;2022-07-10T13:46:31;6.22;;;3.00;;
46835;SDS011;32573;51.290;6.926;2022-07-10T13:49:00;8.02;;;3.38;;
46835;SDS011;32573;51.290;6.926;2022-07-10T13:51:29;4.90;;;2.50;;
46835;SDS011;32573;51.290;6.926;2022-07-10T13:53:58;5.82;;;2.17;;
46835;SDS011;32573;51.290;6.926;2022-07-10T13:56:28;6.03;;;2.72;;
46835;SDS011;32573;51.290;6.926;2022-07-10T13:58:56;5.68;;;2.28;;
46835;SDS011;32573;51.290;6.926;2022-07-10T14:01:24;5.20;;;2.00;;
46835;SDS011;32573;51.290;6.926;2022-07-10T14:03:54;4.82;;;1.90;;
46835;SDS011;32573;51.290;6.926;2022-07-10T14:06:23;3.60;;;1.80;;
46835;SDS011;32573;51.290;6.926;2022-07-10T14:08:51;4.22;;;1.60;;
46835;SDS011;32573;51.290;6.926;2022-07-10T14:11:20;6.72;;;1.80;;
46835;SDS011;32573;51.290;6.926;2022-07-10T14:13:50;4.93;;;1.60;;
46835;SDS011;32573;51.290;6.926;2022-07-10T14:16:19;4.18;;;1.50;;
46835;SDS011;32573;51.290;6.926;2022-07-10T14:18:48;3.40;;;1.42;;
46835;SDS011;32573;51.290;6.926;2022-07-10T14:21:16;4.05;;;1.50;;
46835;SDS011;32573;51.290;6.926;2022-07-10T14:23:45;3.92;;;1.40;;
46835;SDS011;32573;51.290;6.926;2022-07-10T14:26:13;3.55;;;1.40;;
46835;SDS011;32573;51.290;6.926;2022-07-10T14:28:41;3.47;;;1.42;;
46835;SDS011;32573;51.290;6.926;2022-07-10T14:31:12;4.75;;;1.60;;
46835;SDS011;32573;51.290;6.926;2022-07-10T14:33:41;3.22;;;1.42;;
46835;SDS011;32573;51.290;6.926;2022-07-10T14:36:09;4.95;;;1.30;;
46835;SDS011;32573;51.290;6.926;2022-07-10T14:38:38;2.45;;;1.20;;
46835;SDS011;32573;51.290;6.926;2022-07-10T14:41:07;2.83;;;1.20;;
46835;SDS011;32573;51.290;6.926;2022-07-10T14:43:35;3.72;;;1.20;;
46835;SDS011;32573;51.290;6.926;2022-07-10T14:46:04;2.63;;;1.30;;
46835;SDS011;32573;51.290;6.926;2022-07-10T14:48:34;2.88;;;1.20;;
46835;SDS011;32573;51.290;6.926;2022-07-10T14:51:03;2.30;;;1.20;;
46835;SDS011;32573;51.290;6.926;2022-07-10T14:53:31;2.97;;;1.20;;
46835;SDS011;32573;51.290;6.926;2022-07-10T14:56:02;4.15;;;1.48;;
46835;SDS011;32573;51.290;6.926;2022-07-10T14:58:31;6.15;;;1.50;;
46835;SDS011;32573;51.290;6.926;2022-07-10T15:01:19;3.63;;;1.40;;
46835;SDS011;32573;51.290;6.926;2022-07-10T15:03:49;3.45;;;1.48;;
46835;SDS011;32573;51.290;6.926;2022-07-10T15:06:17;3.55;;;1.35;;
46835;SDS011;32573;51.290;6.926;2022-07-10T15:08:46;4.03;;;1.48;;
46835;SDS011;32573;51.290;6.926;2022-07-10T15:11:17;5.75;;;1.90;;
46835;SDS011;32573;51.290;6.926;2022-07-10T15:13:48;5.20;;;1.83;;